Nome Airport Nome US
ICAO: PAOM
IATA:
Category: Medium
Scheduled Services:

Elevation: 37 ft
TransAlt. 18000 ft.

Airport Communications:
ASOS:119.925
ATIS:119.925
ANCHORAGE CNTR:133.3
CTAF:123.6
RDO:122.45
TWEB:115

PAOM Zoom In..

Runways:

(A) RW 03 length 5576 ft width 150 ft
---- / hdg 28

(B) RW 10 length 6001 ft width 150 ft
---- / hdg 96

(C) RW 21 length 5576 ft width 150 ft
---- / hdg 208

(D) RW 28 length 6001 ft width 150 ft
ILS 108.70 / hdg 276

Location; PAOM
Day. 23 / Time. 06.53 Zulu
* Altimeter: 30.08
* Temperature: 16° c. 60.8°f.
* Wind from: 290° Speed 05 kn.
Dewpoint: 13° c.
Visibility: 10 Statute Miles.
Clouds: Clear (automated report).

PAOM 230653Z AUTO 29005KT 10SM CLR 16/13 A3008 RMK AO2 SLP187 T01560128 TSNO


Wind From 290°
Speed 05 kn.

 
 
jpsmedia.com for Web Design worldairports.se 2018   terms of use